createdAt,value
2019-01-31T00:00:29.170Z,0
2019-01-31T00:01:37.214Z,0
2019-01-31T00:02:45.283Z,0
2019-01-31T00:03:53.312Z,0
2019-01-31T00:05:01.471Z,0
2019-01-31T00:06:09.573Z,0
2019-01-31T00:07:17.454Z,0
2019-01-31T00:08:25.531Z,0
2019-01-31T00:09:33.557Z,0
2019-01-31T00:20:37.059Z,0
2019-01-31T00:21:45.094Z,0
2019-01-31T00:22:53.136Z,0
2019-01-31T00:24:01.182Z,0
2019-01-31T00:25:09.242Z,0
2019-01-31T00:26:17.289Z,0
2019-01-31T00:27:25.342Z,0
2019-01-31T00:28:33.402Z,0
2019-01-31T00:29:41.457Z,0
2019-01-31T00:30:49.502Z,0
2019-01-31T00:31:57.562Z,0
2019-01-31T00:33:05.613Z,0
2019-01-31T00:34:13.645Z,0
2019-01-31T00:35:21.722Z,0
2019-01-31T00:36:29.762Z,0
2019-01-31T00:37:37.810Z,0
2019-01-31T00:38:56.255Z,0
2019-01-31T00:39:54.090Z,0
2019-01-31T00:41:02.172Z,0
2019-01-31T00:42:10.423Z,0
2019-01-31T00:43:18.472Z,0
2019-01-31T00:44:26.537Z,0
2019-01-31T00:45:34.559Z,0
2019-01-31T00:46:42.634Z,0
2019-01-31T00:47:50.677Z,0
2019-01-31T00:48:58.737Z,0
2019-01-31T00:50:06.825Z,0
2019-01-31T00:51:14.802Z,0
2019-01-31T00:52:22.874Z,0
2019-01-31T00:53:30.951Z,0
2019-01-31T00:54:38.982Z,0
2019-01-31T00:55:47.032Z,0
2019-01-31T00:56:55.084Z,0
2019-01-31T00:58:03.133Z,0
2019-01-31T00:59:11.201Z,0
2019-01-31T01:00:19.286Z,0
2019-01-31T01:01:27.294Z,0
2019-01-31T01:03:08.089Z,0
2019-01-31T01:04:16.192Z,0
2019-01-31T01:05:24.395Z,0
2019-01-31T01:06:33.061Z,0
2019-01-31T01:08:49.158Z,0
2019-01-31T01:09:57.215Z,0
2019-01-31T01:11:05.291Z,0
2019-01-31T01:12:13.314Z,0
2019-01-31T01:13:22.559Z,0
2019-01-31T01:14:30.601Z,0
2019-01-31T01:15:38.782Z,0
2019-01-31T01:16:46.711Z,0
2019-01-31T01:17:54.761Z,0
2019-01-31T01:19:03.018Z,0
2019-01-31T01:20:12.459Z,0
2019-01-31T01:21:20.568Z,0
2019-01-31T01:22:33.644Z,0
2019-01-31T01:23:43.695Z,0
2019-01-31T01:25:29.064Z,0
2019-01-31T01:27:59.137Z,0
2019-01-31T01:29:07.178Z,0
2019-01-31T01:30:15.228Z,0
2019-01-31T01:31:28.531Z,0
2019-01-31T01:34:22.544Z,0
2019-01-31T01:35:30.558Z,0
2019-01-31T01:36:38.598Z,0
2019-01-31T01:37:46.655Z,0
2019-01-31T01:38:54.678Z,0
2019-01-31T01:40:02.964Z,0
2019-01-31T01:41:11.001Z,0
2019-01-31T01:42:19.064Z,0
2019-01-31T01:43:27.127Z,0
2019-01-31T01:44:35.199Z,0
2019-01-31T01:45:43.219Z,0
2019-01-31T01:46:51.267Z,0
2019-01-31T01:47:59.329Z,0
2019-01-31T01:49:07.366Z,0
2019-01-31T01:50:16.830Z,0
2019-01-31T01:51:25.091Z,0
2019-01-31T01:52:33.144Z,0
2019-01-31T01:53:41.197Z,0
2019-01-31T01:54:49.441Z,0
2019-01-31T01:56:00.110Z,0
2019-01-31T01:58:53.315Z,0
2019-01-31T02:00:01.379Z,0
2019-01-31T02:01:09.394Z,0
2019-01-31T02:02:17.439Z,0
2019-01-31T02:03:25.492Z,0
2019-01-31T02:04:33.545Z,0
2019-01-31T02:05:41.597Z,0
2019-01-31T02:06:49.681Z,0
2019-01-31T02:07:57.705Z,0
2019-01-31T02:09:05.787Z,0
2019-01-31T02:10:13.793Z,0
2019-01-31T02:11:21.848Z,0
2019-01-31T02:12:29.901Z,0
2019-01-31T02:13:37.959Z,0
2019-01-31T02:14:46.000Z,0
2019-01-31T02:15:56.693Z,0
2019-01-31T02:17:05.360Z,0
2019-01-31T02:18:13.401Z,0
2019-01-31T02:19:21.474Z,0
2019-01-31T02:20:31.915Z,0
2019-01-31T02:21:40.065Z,0
2019-01-31T02:22:50.627Z,0
2019-01-31T02:23:58.677Z,0
2019-01-31T02:25:06.721Z,0
2019-01-31T02:26:17.405Z,0
2019-01-31T02:27:31.630Z,0
2019-01-31T02:28:40.820Z,0
2019-01-31T02:30:23.954Z,0
2019-01-31T02:31:32.065Z,0
2019-01-31T02:32:40.115Z,0
2019-01-31T02:33:48.141Z,0
2019-01-31T02:34:56.188Z,0
2019-01-31T02:36:05.108Z,0
2019-01-31T02:37:12.288Z,0
2019-01-31T02:38:20.335Z,0
2019-01-31T02:39:28.411Z,0
2019-01-31T02:40:36.441Z,0
2019-01-31T02:41:44.475Z,0
2019-01-31T02:42:52.551Z,0
2019-01-31T02:44:00.627Z,0
2019-01-31T02:45:08.644Z,0
2019-01-31T02:46:19.306Z,0
2019-01-31T02:47:30.381Z,0
2019-01-31T02:48:43.680Z,0
2019-01-31T02:52:26.043Z,0
2019-01-31T02:53:37.729Z,0
2019-01-31T02:54:47.595Z,0
2019-01-31T02:56:00.502Z,0
2019-01-31T03:03:57.991Z,0
2019-01-31T03:05:05.926Z,0
2019-01-31T03:06:13.998Z,0
2019-01-31T03:07:22.017Z,0
2019-01-31T03:08:30.068Z,0
2019-01-31T03:09:38.120Z,0
2019-01-31T03:10:46.173Z,0
2019-01-31T03:11:54.191Z,0
2019-01-31T03:13:04.684Z,0
2019-01-31T03:20:15.173Z,0
2019-01-31T03:21:56.746Z,0
2019-01-31T03:26:10.356Z,0
2019-01-31T03:34:40.739Z,0
2019-01-31T03:35:48.772Z,0
2019-01-31T03:36:56.823Z,0
2019-01-31T03:38:04.861Z,0
2019-01-31T03:39:12.990Z,0
2019-01-31T03:40:20.966Z,0
2019-01-31T03:41:29.014Z,0
2019-01-31T03:42:37.081Z,0
2019-01-31T03:43:45.121Z,0
2019-01-31T03:44:53.163Z,0
2019-01-31T03:46:01.230Z,0
2019-01-31T03:47:09.264Z,0
2019-01-31T03:48:17.324Z,0
2019-01-31T03:49:25.384Z,0
2019-01-31T03:50:33.434Z,0
2019-01-31T03:51:41.493Z,0
2019-01-31T03:52:49.671Z,0
2019-01-31T03:53:57.610Z,0
2019-01-31T03:55:05.635Z,0
2019-01-31T03:56:15.659Z,0
2019-01-31T03:57:21.727Z,0
2019-01-31T03:58:29.784Z,0
2019-01-31T03:59:37.823Z,0
2019-01-31T04:00:45.901Z,0
2019-01-31T04:01:53.928Z,0
2019-01-31T04:03:01.989Z,0
2019-01-31T04:04:10.037Z,0
2019-01-31T04:05:18.082Z,0
2019-01-31T04:06:26.134Z,0
2019-01-31T04:07:34.170Z,0
2019-01-31T04:08:42.249Z,0
2019-01-31T04:09:50.294Z,0
2019-01-31T04:10:58.344Z,0
2019-01-31T04:12:06.397Z,0
2019-01-31T04:13:14.416Z,0
2019-01-31T04:14:22.494Z,0
2019-01-31T04:15:30.538Z,0
2019-01-31T04:16:38.616Z,0
2019-01-31T04:17:46.690Z,0
2019-01-31T04:18:54.673Z,0
2019-01-31T04:20:02.756Z,0
2019-01-31T04:21:10.791Z,0
2019-01-31T04:22:18.852Z,0
2019-01-31T04:23:26.896Z,0
2019-01-31T04:24:34.938Z,0
2019-01-31T04:25:42.997Z,0
2019-01-31T04:26:51.053Z,0
2019-01-31T04:27:59.113Z,0
2019-01-31T04:29:07.162Z,0
2019-01-31T04:30:15.209Z,0
2019-01-31T04:31:23.249Z,0
2019-01-31T04:32:31.302Z,0
2019-01-31T04:33:39.372Z,0
2019-01-31T04:34:47.404Z,0
2019-01-31T04:35:55.481Z,0
2019-01-31T04:37:03.509Z,0
2019-01-31T04:38:11.557Z,0
2019-01-31T04:39:19.641Z,0
2019-01-31T04:40:31.209Z,0
2019-01-31T04:41:35.715Z,0
2019-01-31T04:42:43.763Z,0
2019-01-31T04:43:51.816Z,0
2019-01-31T04:44:59.872Z,0
2019-01-31T04:46:07.943Z,0
2019-01-31T04:47:15.959Z,0
2019-01-31T04:48:23.995Z,0
2019-01-31T04:49:32.113Z,0
2019-01-31T04:50:40.130Z,0
2019-01-31T04:51:48.191Z,0
2019-01-31T04:52:56.240Z,0
2019-01-31T04:54:04.361Z,0
2019-01-31T04:55:12.339Z,0
2019-01-31T04:56:20.388Z,0
2019-01-31T04:57:28.545Z,0
2019-01-31T04:58:36.492Z,0
2019-01-31T04:59:44.525Z,0
2019-01-31T05:00:52.630Z,0
2019-01-31T05:02:00.654Z,0
2019-01-31T05:03:08.707Z,0
2019-01-31T05:04:16.750Z,0
2019-01-31T05:05:24.804Z,0
2019-01-31T05:06:32.871Z,0
2019-01-31T05:07:40.918Z,0
2019-01-31T05:08:48.961Z,0
2019-01-31T05:09:57.015Z,0
2019-01-31T05:11:05.097Z,0
2019-01-31T05:12:13.121Z,0
2019-01-31T05:13:21.175Z,0
2019-01-31T05:14:29.221Z,0
2019-01-31T05:15:37.278Z,0
2019-01-31T05:16:45.344Z,0
2019-01-31T05:17:53.380Z,0
2019-01-31T05:19:01.434Z,0
2019-01-31T05:20:09.483Z,0
2019-01-31T05:21:17.571Z,0
2019-01-31T05:22:25.583Z,0
2019-01-31T05:23:33.646Z,0
2019-01-31T05:24:41.702Z,0
2019-01-31T05:25:49.755Z,0
2019-01-31T05:26:57.797Z,0
2019-01-31T05:28:05.858Z,0
2019-01-31T05:29:13.884Z,0
2019-01-31T05:30:21.955Z,0
2019-01-31T05:31:30.044Z,0
2019-01-31T05:32:38.161Z,0
2019-01-31T05:33:46.841Z,0
2019-01-31T05:34:54.290Z,0
2019-01-31T05:36:02.225Z,0
2019-01-31T05:37:10.280Z,0
2019-01-31T05:38:18.322Z,0
2019-01-31T05:39:26.380Z,0
2019-01-31T05:40:34.419Z,0
2019-01-31T05:41:42.507Z,0
2019-01-31T05:42:50.529Z,0
2019-01-31T05:43:58.591Z,0
2019-01-31T05:45:06.642Z,0
2019-01-31T05:46:18.154Z,0
2019-01-31T05:47:22.750Z,0
2019-01-31T05:48:31.382Z,0
2019-01-31T05:49:38.852Z,0
2019-01-31T05:50:47.168Z,0
2019-01-31T05:51:55.237Z,0
2019-01-31T05:53:03.268Z,0
2019-01-31T05:54:11.295Z,0
2019-01-31T05:55:19.593Z,0
2019-01-31T05:56:27.165Z,0
2019-01-31T05:57:35.226Z,0
2019-01-31T05:58:43.283Z,0
2019-01-31T05:59:51.566Z,0
2019-01-31T06:00:59.385Z,0
2019-01-31T06:02:07.444Z,0
2019-01-31T06:03:15.499Z,0
2019-01-31T06:04:23.579Z,0
2019-01-31T06:05:31.600Z,0
2019-01-31T06:06:39.648Z,0
2019-01-31T06:07:47.751Z,0
2019-01-31T06:08:55.928Z,0
2019-01-31T06:10:03.831Z,0
2019-01-31T06:11:11.886Z,0
2019-01-31T06:12:19.916Z,0
2019-01-31T06:13:27.967Z,0
2019-01-31T06:14:36.027Z,0
2019-01-31T06:15:44.066Z,0
2019-01-31T06:16:52.120Z,0
2019-01-31T06:18:00.181Z,0
2019-01-31T06:19:08.965Z,0
2019-01-31T06:20:16.281Z,0
2019-01-31T06:21:24.441Z,0
2019-01-31T06:22:32.407Z,0
2019-01-31T06:23:40.464Z,0
2019-01-31T06:24:48.489Z,0
2019-01-31T06:25:56.558Z,0
2019-01-31T06:27:04.595Z,4
2019-01-31T06:28:13.046Z,4
2019-01-31T06:29:20.707Z,0
2019-01-31T06:30:28.869Z,4
2019-01-31T06:31:36.814Z,4
2019-01-31T06:32:44.900Z,4
2019-01-31T06:33:52.938Z,4
2019-01-31T06:35:00.987Z,8
2019-01-31T06:36:09.033Z,4
2019-01-31T06:37:17.089Z,8
2019-01-31T06:38:25.136Z,8
2019-01-31T06:39:33.203Z,12
2019-01-31T06:40:41.251Z,12
2019-01-31T06:41:49.307Z,16
2019-01-31T06:42:57.394Z,20
2019-01-31T06:44:05.415Z,24
2019-01-31T06:45:13.461Z,28
2019-01-31T06:46:21.518Z,36
2019-01-31T06:47:29.569Z,36
2019-01-31T06:48:37.621Z,44
2019-01-31T06:49:45.682Z,52
2019-01-31T06:50:53.715Z,68
2019-01-31T06:52:01.784Z,72
2019-01-31T06:53:09.822Z,84
2019-01-31T06:54:17.884Z,96
2019-01-31T06:55:25.919Z,112
2019-01-31T06:56:33.974Z,128
2019-01-31T06:57:42.056Z,144
2019-01-31T06:58:50.119Z,156
2019-01-31T06:59:58.155Z,176
2019-01-31T07:01:06.305Z,196
2019-01-31T07:02:14.228Z,220
2019-01-31T07:03:22.333Z,236
2019-01-31T07:04:30.359Z,252
2019-01-31T07:05:38.421Z,264
2019-01-31T07:06:46.469Z,268
2019-01-31T07:07:54.501Z,272
2019-01-31T07:09:02.595Z,284
2019-01-31T07:10:10.626Z,304
2019-01-31T07:11:29.291Z,328
2019-01-31T07:12:26.731Z,352
2019-01-31T07:13:34.936Z,376
2019-01-31T07:14:42.866Z,404
2019-01-31T07:15:50.908Z,424
2019-01-31T07:16:58.964Z,448
2019-01-31T07:18:07.026Z,468
2019-01-31T07:19:15.099Z,500
2019-01-31T07:20:23.109Z,536
2019-01-31T07:21:31.176Z,576
2019-01-31T07:22:39.224Z,604
2019-01-31T07:23:47.278Z,648
2019-01-31T07:24:55.321Z,716
2019-01-31T07:26:03.417Z,776
2019-01-31T07:27:11.434Z,804
2019-01-31T07:28:19.485Z,860
2019-01-31T07:29:27.554Z,944
2019-01-31T07:30:35.601Z,1040
2019-01-31T07:31:43.657Z,1140
2019-01-31T07:32:51.721Z,1236
2019-01-31T07:33:59.783Z,1344
2019-01-31T07:35:07.811Z,1448
2019-01-31T07:36:15.871Z,1552
2019-01-31T07:37:23.922Z,1640
2019-01-31T07:38:31.980Z,1692
2019-01-31T07:39:40.034Z,1760
2019-01-31T07:40:48.099Z,1832
2019-01-31T07:41:56.127Z,1920
2019-01-31T07:43:04.179Z,2012
2019-01-31T07:44:12.238Z,2140
2019-01-31T07:45:20.308Z,2272
2019-01-31T07:46:28.357Z,2412
2019-01-31T07:47:36.786Z,2564
2019-01-31T07:48:44.452Z,2672
2019-01-31T07:49:52.521Z,2688
2019-01-31T07:51:00.577Z,2724
2019-01-31T07:52:08.626Z,2824
2019-01-31T07:53:16.677Z,3016
2019-01-31T07:54:24.722Z,3248
2019-01-31T07:55:32.793Z,3460
2019-01-31T07:56:40.847Z,3676
2019-01-31T07:57:48.893Z,3776
2019-01-31T07:58:56.982Z,3872
2019-01-31T08:00:04.999Z,4004
2019-01-31T08:01:13.081Z,4052
2019-01-31T08:02:21.107Z,4060
2019-01-31T08:03:29.167Z,4084
2019-01-31T08:04:37.222Z,3976
2019-01-31T08:05:45.292Z,3760
2019-01-31T08:06:53.332Z,3532
2019-01-31T08:08:01.398Z,3464
2019-01-31T08:09:09.429Z,3588
2019-01-31T08:10:17.501Z,3720
2019-01-31T08:11:25.598Z,3752
2019-01-31T08:12:34.648Z,3908
2019-01-31T08:13:41.670Z,3824
2019-01-31T08:14:49.714Z,3672
2019-01-31T08:15:57.846Z,3612
2019-01-31T08:17:05.826Z,3512
2019-01-31T08:18:13.876Z,3412
2019-01-31T08:19:21.941Z,3520
2019-01-31T08:20:30.027Z,3932
2019-01-31T08:21:40.563Z,4532
2019-01-31T08:22:46.117Z,5076
2019-01-31T08:23:55.006Z,5608
2019-01-31T08:25:02.212Z,5608
2019-01-31T08:26:10.292Z,5432
2019-01-31T08:27:18.320Z,5656
2019-01-31T08:28:26.374Z,5564
2019-01-31T08:29:34.429Z,5700
2019-01-31T08:30:42.493Z,5588
2019-01-31T08:31:50.553Z,5448
2019-01-31T08:32:58.617Z,5256
2019-01-31T08:34:06.682Z,5336
2019-01-31T08:35:14.768Z,5496
2019-01-31T08:36:22.771Z,5116
2019-01-31T08:37:30.909Z,4796
2019-01-31T08:38:38.884Z,4720
2019-01-31T08:39:46.927Z,4500
2019-01-31T08:40:54.979Z,4220
2019-01-31T08:42:03.970Z,4008
2019-01-31T08:43:11.095Z,3704
2019-01-31T08:44:19.164Z,3580
2019-01-31T08:45:27.259Z,3708
2019-01-31T08:46:35.269Z,3924
2019-01-31T08:47:43.316Z,4200
2019-01-31T08:48:51.380Z,4248
2019-01-31T08:49:59.424Z,4116
2019-01-31T08:51:07.493Z,4052
2019-01-31T08:52:15.532Z,3900
2019-01-31T08:53:23.601Z,3900
2019-01-31T08:54:31.643Z,4084
2019-01-31T08:55:39.749Z,4384
2019-01-31T08:56:47.813Z,4656
2019-01-31T08:57:55.907Z,4824
2019-01-31T08:59:03.860Z,4900
2019-01-31T09:00:11.925Z,4956
2019-01-31T09:01:19.983Z,5064
2019-01-31T09:02:28.050Z,5220
2019-01-31T09:03:36.109Z,5464
2019-01-31T09:04:44.134Z,5788
2019-01-31T09:05:52.204Z,6196
2019-01-31T09:07:00.303Z,6584
2019-01-31T09:08:08.321Z,6876
2019-01-31T09:09:16.380Z,7172
2019-01-31T09:10:24.418Z,7268
2019-01-31T09:11:32.491Z,7320
2019-01-31T09:12:40.539Z,7140
2019-01-31T09:13:48.624Z,6428
2019-01-31T09:14:56.660Z,5816
2019-01-31T09:16:04.699Z,5004
2019-01-31T09:17:12.819Z,4336
2019-01-31T09:18:20.811Z,3716
2019-01-31T09:19:28.885Z,3440
2019-01-31T09:20:36.953Z,3600
2019-01-31T09:21:44.994Z,4248
2019-01-31T09:22:53.050Z,4628
2019-01-31T09:24:01.114Z,4768
2019-01-31T09:25:09.161Z,4604
2019-01-31T09:26:17.205Z,4276
2019-01-31T09:27:25.303Z,4208
2019-01-31T09:28:33.338Z,4440
2019-01-31T09:29:41.384Z,5112
2019-01-31T09:30:49.455Z,5948
2019-01-31T09:31:57.513Z,6544
2019-01-31T09:33:05.556Z,6400
2019-01-31T09:34:13.611Z,5812
2019-01-31T09:35:21.672Z,5816
2019-01-31T09:36:29.732Z,6424
2019-01-31T09:37:37.827Z,6472
2019-01-31T09:38:45.879Z,6436
2019-01-31T09:39:53.904Z,6320
2019-01-31T09:41:01.938Z,6020
2019-01-31T09:42:10.015Z,6176
2019-01-31T09:43:18.078Z,6212
2019-01-31T09:44:26.118Z,6072
2019-01-31T09:45:34.150Z,6400
2019-01-31T09:46:42.231Z,6744
2019-01-31T09:47:50.292Z,6760
2019-01-31T09:48:58.392Z,6528
2019-01-31T09:50:06.408Z,6884
2019-01-31T09:51:14.439Z,6556
2019-01-31T09:52:22.513Z,6300
2019-01-31T09:53:30.576Z,6428
2019-01-31T09:54:38.660Z,6232
2019-01-31T09:55:46.699Z,6156
2019-01-31T09:56:54.749Z,6368
2019-01-31T09:58:02.811Z,6828
2019-01-31T09:59:10.863Z,7296
2019-01-31T10:00:26.993Z,8180
2019-01-31T10:01:26.975Z,9656
2019-01-31T10:02:35.021Z,9788
2019-01-31T10:03:43.090Z,9768
2019-01-31T10:04:51.135Z,11756
2019-01-31T10:05:59.203Z,11432
2019-01-31T10:07:07.269Z,11676
2019-01-31T10:08:15.313Z,11748
2019-01-31T10:09:23.419Z,11812
2019-01-31T10:10:31.506Z,13808
2019-01-31T10:11:39.502Z,13540
2019-01-31T10:12:47.557Z,14920
2019-01-31T10:13:55.646Z,14028
2019-01-31T10:15:03.674Z,10344
2019-01-31T10:16:11.738Z,8552
2019-01-31T10:17:19.808Z,8012
2019-01-31T10:18:27.915Z,7504
2019-01-31T10:19:35.991Z,7668
2019-01-31T10:20:44.161Z,6072
2019-01-31T10:21:52.112Z,5260
2019-01-31T10:23:00.135Z,5104
2019-01-31T10:24:08.131Z,5344
2019-01-31T10:25:16.265Z,4948
2019-01-31T10:26:24.235Z,4792
2019-01-31T10:27:32.306Z,4576
2019-01-31T10:28:40.376Z,5128
2019-01-31T10:29:48.430Z,5668
2019-01-31T10:30:56.499Z,5920
2019-01-31T10:32:04.516Z,6332
2019-01-31T10:33:12.610Z,6688
2019-01-31T10:34:22.305Z,7316
2019-01-31T10:35:28.722Z,7644
2019-01-31T10:36:36.818Z,7448
2019-01-31T10:37:44.812Z,7372
2019-01-31T10:38:54.694Z,7376
2019-01-31T10:40:00.935Z,7992
2019-01-31T10:41:09.022Z,8136
2019-01-31T10:42:17.070Z,7144
2019-01-31T10:43:25.116Z,6832
2019-01-31T10:44:33.203Z,6668
2019-01-31T10:45:41.246Z,6384
2019-01-31T10:46:49.311Z,6292
2019-01-31T10:47:57.400Z,6324
2019-01-31T10:49:05.419Z,6400
2019-01-31T10:50:13.469Z,6644
2019-01-31T10:51:21.523Z,7176
2019-01-31T10:52:29.634Z,7548
2019-01-31T10:53:37.647Z,7668
2019-01-31T10:54:45.709Z,7540
2019-01-31T10:55:53.760Z,7744
2019-01-31T10:57:01.810Z,7988
2019-01-31T10:58:09.911Z,8532
2019-01-31T10:59:17.929Z,8892
2019-01-31T11:00:26.002Z,9368
2019-01-31T11:01:34.017Z,10080
2019-01-31T11:02:42.113Z,11232
2019-01-31T11:03:50.171Z,10296
2019-01-31T11:04:58.218Z,9792
2019-01-31T11:06:06.289Z,10016
2019-01-31T11:07:14.327Z,10084
2019-01-31T11:08:22.408Z,11012
2019-01-31T11:09:30.452Z,10660
2019-01-31T11:10:38.516Z,8752
2019-01-31T11:11:46.578Z,7780
2019-01-31T11:13:00.474Z,7672
2019-01-31T11:14:02.684Z,7816
2019-01-31T11:15:10.740Z,7420
2019-01-31T11:16:18.798Z,6816
2019-01-31T11:17:26.869Z,6560
2019-01-31T11:18:34.916Z,6988
2019-01-31T11:19:42.975Z,7496
2019-01-31T11:20:51.049Z,7940
2019-01-31T11:21:59.086Z,8716
2019-01-31T11:23:07.152Z,9080
2019-01-31T11:24:15.216Z,8904
2019-01-31T11:25:23.266Z,9932
2019-01-31T11:26:31.312Z,11720
2019-01-31T11:27:39.388Z,12924
2019-01-31T11:28:47.447Z,13740
2019-01-31T11:29:55.517Z,14428
2019-01-31T11:31:03.610Z,13736
2019-01-31T11:32:11.615Z,11728
2019-01-31T11:33:19.679Z,10040
2019-01-31T11:34:32.841Z,9184
2019-01-31T11:35:35.803Z,8056
2019-01-31T11:36:43.839Z,8508
2019-01-31T11:37:51.921Z,8788
2019-01-31T11:39:00.197Z,8356
2019-01-31T11:40:08.049Z,8088
2019-01-31T11:41:16.190Z,7604
2019-01-31T11:42:24.180Z,7488
2019-01-31T11:43:32.225Z,7236
2019-01-31T11:44:40.303Z,7640
2019-01-31T11:45:48.336Z,8432
2019-01-31T11:46:56.412Z,8828
2019-01-31T11:48:04.442Z,9040
2019-01-31T11:49:12.520Z,9156
2019-01-31T11:50:20.588Z,8272
2019-01-31T11:51:28.624Z,7824
2019-01-31T11:52:36.721Z,8052
2019-01-31T11:53:44.782Z,7520
2019-01-31T11:54:55.149Z,7908
2019-01-31T11:56:00.874Z,8432
2019-01-31T11:57:08.924Z,8812
2019-01-31T11:58:16.997Z,8956
2019-01-31T11:59:25.049Z,9232
2019-01-31T12:00:33.115Z,9436
2019-01-31T12:01:41.184Z,10472
2019-01-31T12:02:54.855Z,10944
2019-01-31T12:03:57.297Z,11688
2019-01-31T12:05:05.340Z,12092
2019-01-31T12:06:13.451Z,10832
2019-01-31T12:07:21.468Z,11312
2019-01-31T12:08:29.533Z,11668
2019-01-31T12:09:37.589Z,12488
2019-01-31T12:10:45.653Z,12188
2019-01-31T12:11:53.713Z,11924
2019-01-31T12:13:01.773Z,12188
2019-01-31T12:14:09.832Z,11676
2019-01-31T12:15:17.893Z,11468
2019-01-31T12:16:25.985Z,10884
2019-01-31T12:17:34.003Z,9440
2019-01-31T12:18:42.076Z,9452
2019-01-31T12:19:50.138Z,9048
2019-01-31T12:20:58.190Z,7608
2019-01-31T12:22:06.222Z,7596
2019-01-31T12:23:14.268Z,7268
2019-01-31T12:24:22.381Z,6808
2019-01-31T12:25:30.424Z,7192
2019-01-31T12:26:38.499Z,7636
2019-01-31T12:27:46.545Z,7408
2019-01-31T12:28:54.592Z,6936
2019-01-31T12:30:02.692Z,6772
2019-01-31T12:31:10.729Z,6508
2019-01-31T12:32:18.789Z,6600
2019-01-31T12:33:26.852Z,6900
2019-01-31T12:34:34.910Z,6816
2019-01-31T12:35:42.999Z,7036
2019-01-31T12:36:51.017Z,7644
2019-01-31T12:37:59.078Z,8384
2019-01-31T12:39:07.136Z,8500
2019-01-31T12:40:15.212Z,8008
2019-01-31T12:41:24.034Z,7164
2019-01-31T12:42:31.317Z,7584
2019-01-31T12:43:39.396Z,8864
2019-01-31T12:44:47.450Z,9316
2019-01-31T12:45:55.518Z,10928
2019-01-31T12:47:03.568Z,8136
2019-01-31T12:48:11.623Z,7084
2019-01-31T12:49:19.683Z,7928
2019-01-31T12:50:27.735Z,9144
2019-01-31T12:51:35.823Z,9996
2019-01-31T12:52:43.840Z,9280
2019-01-31T12:53:51.918Z,7696
2019-01-31T12:54:59.979Z,7640
2019-01-31T12:56:08.058Z,9120
2019-01-31T12:57:16.113Z,8896
2019-01-31T12:58:33.241Z,9608
2019-01-31T12:59:32.217Z,10488
2019-01-31T13:00:40.285Z,9200
2019-01-31T13:01:48.439Z,6044
2019-01-31T13:02:56.404Z,4712
2019-01-31T13:04:04.462Z,4116
2019-01-31T13:05:12.506Z,5168
2019-01-31T13:06:20.579Z,5956
2019-01-31T13:07:28.631Z,4960
2019-01-31T13:08:36.707Z,4132
2019-01-31T13:09:44.737Z,4656
2019-01-31T13:10:52.817Z,6832
2019-01-31T13:12:00.879Z,6968
2019-01-31T13:13:08.925Z,7356
2019-01-31T13:14:16.992Z,6276
2019-01-31T13:15:25.058Z,5896
2019-01-31T13:16:33.120Z,6928
2019-01-31T13:17:41.175Z,8276
2019-01-31T13:18:49.236Z,9768
2019-01-31T13:19:57.974Z,10412
2019-01-31T13:21:05.350Z,10964
2019-01-31T13:22:13.430Z,11696
2019-01-31T13:23:21.456Z,10012
2019-01-31T13:24:29.524Z,7868
2019-01-31T13:25:37.625Z,6408
2019-01-31T13:26:45.639Z,5852
2019-01-31T13:27:53.687Z,6996
2019-01-31T13:29:01.781Z,7844
2019-01-31T13:30:09.824Z,8420
2019-01-31T13:31:17.898Z,8868
2019-01-31T13:32:25.931Z,8296
2019-01-31T13:33:33.969Z,6300
2019-01-31T13:34:42.049Z,4788
2019-01-31T13:35:50.112Z,4432
2019-01-31T13:36:58.233Z,4140
2019-01-31T13:38:06.243Z,4560
2019-01-31T13:39:14.292Z,4864
2019-01-31T13:40:22.361Z,5188
2019-01-31T13:41:30.423Z,6392
2019-01-31T13:42:38.483Z,6892
2019-01-31T13:43:56.987Z,5992
2019-01-31T13:44:54.574Z,5120
2019-01-31T13:46:02.671Z,4900
2019-01-31T13:47:10.722Z,4876
2019-01-31T13:48:18.786Z,6512
2019-01-31T13:49:26.852Z,6756
2019-01-31T13:50:34.912Z,5416
2019-01-31T13:51:42.955Z,4404
2019-01-31T13:52:51.023Z,4224
2019-01-31T13:53:59.076Z,4164
2019-01-31T13:55:07.157Z,4196
2019-01-31T13:56:15.182Z,4020
2019-01-31T13:57:23.239Z,3572
2019-01-31T13:58:31.316Z,3488
2019-01-31T13:59:39.418Z,3500
2019-01-31T14:00:47.409Z,3616
2019-01-31T14:01:55.486Z,3512
2019-01-31T14:03:03.546Z,3444
2019-01-31T14:04:11.599Z,3660
2019-01-31T14:05:19.660Z,3836
2019-01-31T14:06:27.736Z,3724
2019-01-31T14:07:35.785Z,3456
2019-01-31T14:08:43.833Z,3056
2019-01-31T14:09:51.936Z,3236
2019-01-31T14:10:59.955Z,3336
2019-01-31T14:12:08.024Z,3912
2019-01-31T14:13:16.058Z,4444
2019-01-31T14:14:24.133Z,4784
2019-01-31T14:15:33.753Z,4276
2019-01-31T14:16:47.036Z,4064
2019-01-31T14:17:48.333Z,3888
2019-01-31T14:18:56.381Z,4032
2019-01-31T14:20:04.437Z,3888
2019-01-31T14:21:12.484Z,3304
2019-01-31T14:22:20.536Z,2796
2019-01-31T14:23:28.601Z,2420
2019-01-31T14:24:36.647Z,2276
2019-01-31T14:25:44.714Z,2220
2019-01-31T14:26:52.774Z,2200
2019-01-31T14:28:00.872Z,2208
2019-01-31T14:29:08.893Z,2208
2019-01-31T14:30:16.943Z,2216
2019-01-31T14:31:24.976Z,2212
2019-01-31T14:32:33.060Z,2228
2019-01-31T14:33:41.154Z,2224
2019-01-31T14:34:49.214Z,2220
2019-01-31T14:35:57.888Z,2212
2019-01-31T14:37:05.290Z,2148
2019-01-31T14:38:13.354Z,2108
2019-01-31T14:39:21.439Z,2052
2019-01-31T14:40:29.474Z,2000
2019-01-31T14:41:37.515Z,1948
2019-01-31T14:42:45.569Z,1952
2019-01-31T14:43:53.658Z,1984
2019-01-31T14:45:01.701Z,2016
2019-01-31T14:46:09.769Z,2036
2019-01-31T14:47:17.888Z,2064
2019-01-31T14:49:33.939Z,2204
2019-01-31T14:50:42.000Z,2272
2019-01-31T14:51:50.021Z,2336
2019-01-31T14:52:58.105Z,2380
2019-01-31T14:54:06.136Z,2388
2019-01-31T14:55:14.189Z,2388
2019-01-31T14:56:22.296Z,2388
2019-01-31T14:57:30.330Z,2392
2019-01-31T14:58:38.386Z,2396
2019-01-31T14:59:46.441Z,2416
2019-01-31T15:00:54.500Z,2468
2019-01-31T15:02:02.553Z,2500
2019-01-31T15:03:10.614Z,2500
2019-01-31T15:04:18.663Z,2472
2019-01-31T15:05:26.719Z,2416
2019-01-31T15:06:34.775Z,2384
2019-01-31T15:07:42.840Z,2396
2019-01-31T15:08:50.973Z,2416
2019-01-31T15:09:58.944Z,2508
2019-01-31T15:11:07.003Z,2580
2019-01-31T15:12:15.068Z,2632
2019-01-31T15:13:23.099Z,2664
2019-01-31T15:14:31.665Z,2728
2019-01-31T15:15:39.231Z,2800
2019-01-31T15:16:47.317Z,2856
2019-01-31T15:17:55.375Z,2808
2019-01-31T15:19:03.399Z,2716
2019-01-31T15:20:11.474Z,2532
2019-01-31T15:21:19.500Z,2352
2019-01-31T15:22:27.563Z,2148
2019-01-31T15:23:35.616Z,2060
2019-01-31T15:24:43.666Z,1928
2019-01-31T15:25:51.731Z,1856
2019-01-31T15:26:59.798Z,1780
2019-01-31T15:28:07.846Z,1724
2019-01-31T15:29:15.895Z,1712
2019-01-31T15:30:23.979Z,1680
2019-01-31T15:31:32.030Z,1676
2019-01-31T15:32:40.073Z,1676
2019-01-31T15:33:48.130Z,1680
2019-01-31T15:34:56.222Z,1692
2019-01-31T15:36:04.298Z,1696
2019-01-31T15:37:12.313Z,1716
2019-01-31T15:38:20.356Z,1728
2019-01-31T15:39:28.399Z,1732
2019-01-31T15:40:36.474Z,1712
2019-01-31T15:41:44.555Z,1692
2019-01-31T15:42:52.592Z,1648
2019-01-31T15:44:00.623Z,1584
2019-01-31T15:45:08.694Z,1520
2019-01-31T15:46:17.955Z,1460
2019-01-31T15:47:24.803Z,1408
2019-01-31T15:48:32.853Z,1304
2019-01-31T15:49:40.906Z,1192
2019-01-31T15:50:48.956Z,1108
2019-01-31T15:51:57.053Z,1048
2019-01-31T15:53:05.109Z,1012
2019-01-31T15:54:13.137Z,968
2019-01-31T15:55:21.185Z,924
2019-01-31T15:56:29.244Z,908
2019-01-31T15:57:37.310Z,884
2019-01-31T15:58:45.488Z,844
2019-01-31T15:59:53.420Z,760
2019-01-31T16:01:01.474Z,676
2019-01-31T16:02:09.520Z,608
2019-01-31T16:03:17.585Z,528
2019-01-31T16:04:25.643Z,448
2019-01-31T16:05:33.679Z,352
2019-01-31T16:06:41.739Z,296
2019-01-31T16:07:49.802Z,312
2019-01-31T16:08:57.853Z,312
2019-01-31T16:10:05.980Z,264
2019-01-31T16:11:13.959Z,236
2019-01-31T16:12:22.062Z,248
2019-01-31T16:13:30.100Z,260
2019-01-31T16:14:38.143Z,252
2019-01-31T16:15:46.357Z,204
2019-01-31T16:16:54.230Z,156
2019-01-31T16:18:02.301Z,132
2019-01-31T16:19:10.360Z,128
2019-01-31T16:20:18.404Z,120
2019-01-31T16:21:26.505Z,88
2019-01-31T16:22:34.513Z,68
2019-01-31T16:23:42.579Z,56
2019-01-31T16:24:50.649Z,48
2019-01-31T16:25:58.742Z,44
2019-01-31T16:27:06.783Z,44
2019-01-31T16:28:14.837Z,40
2019-01-31T16:29:22.870Z,36